sensor_id;sensor_type;location;lat;lon;timestamp;P1;durP1;ratioP1;P2;durP2;ratioP2
21677;SDS011;11000;50.360;7.582;2024-01-30T00:00:59;18.07;;;12.43;;
21677;SDS011;11000;50.360;7.582;2024-01-30T00:03:20;16.83;;;12.43;;
21677;SDS011;11000;50.360;7.582;2024-01-30T00:05:40;18.60;;;12.80;;
21677;SDS011;11000;50.360;7.582;2024-01-30T00:08:01;17.80;;;12.17;;
21677;SDS011;11000;50.360;7.582;2024-01-30T00:10:21;15.97;;;11.80;;
21677;SDS011;11000;50.360;7.582;2024-01-30T00:12:42;16.13;;;12.03;;
21677;SDS011;11000;50.360;7.582;2024-01-30T00:15:03;16.40;;;11.80;;
21677;SDS011;11000;50.360;7.582;2024-01-30T00:17:24;18.80;;;12.13;;
21677;SDS011;11000;50.360;7.582;2024-01-30T00:19:46;15.53;;;12.00;;
21677;SDS011;11000;50.360;7.582;2024-01-30T00:22:06;19.80;;;12.37;;
21677;SDS011;11000;50.360;7.582;2024-01-30T00:24:27;16.37;;;12.17;;
21677;SDS011;11000;50.360;7.582;2024-01-30T00:26:48;16.17;;;12.03;;
21677;SDS011;11000;50.360;7.582;2024-01-30T00:29:08;16.80;;;11.73;;
21677;SDS011;11000;50.360;7.582;2024-01-30T00:31:29;15.17;;;12.10;;
21677;SDS011;11000;50.360;7.582;2024-01-30T00:33:49;18.80;;;12.43;;
21677;SDS011;11000;50.360;7.582;2024-01-30T00:36:10;19.10;;;12.77;;
21677;SDS011;11000;50.360;7.582;2024-01-30T00:38:31;18.87;;;11.90;;
21677;SDS011;11000;50.360;7.582;2024-01-30T00:40:51;18.57;;;12.53;;
21677;SDS011;11000;50.360;7.582;2024-01-30T00:43:12;17.20;;;12.70;;
21677;SDS011;11000;50.360;7.582;2024-01-30T00:45:32;17.13;;;12.80;;
21677;SDS011;11000;50.360;7.582;2024-01-30T00:47:52;15.43;;;12.17;;
21677;SDS011;11000;50.360;7.582;2024-01-30T00:50:13;18.47;;;13.03;;
21677;SDS011;11000;50.360;7.582;2024-01-30T00:52:34;17.33;;;12.47;;
21677;SDS011;11000;50.360;7.582;2024-01-30T00:54:55;20.60;;;12.53;;
21677;SDS011;11000;50.360;7.582;2024-01-30T00:57:16;16.13;;;11.97;;
21677;SDS011;11000;50.360;7.582;2024-01-30T00:59:36;17.47;;;12.10;;
21677;SDS011;11000;50.360;7.582;2024-01-30T01:01:57;19.67;;;12.33;;
21677;SDS011;11000;50.360;7.582;2024-01-30T01:04:17;17.37;;;11.63;;
21677;SDS011;11000;50.360;7.582;2024-01-30T01:06:38;16.87;;;12.17;;
21677;SDS011;11000;50.360;7.582;2024-01-30T01:08:58;18.17;;;11.83;;
21677;SDS011;11000;50.360;7.582;2024-01-30T01:11:19;20.33;;;12.33;;
21677;SDS011;11000;50.360;7.582;2024-01-30T01:13:39;21.37;;;13.13;;
21677;SDS011;11000;50.360;7.582;2024-01-30T01:16:00;18.30;;;12.47;;
21677;SDS011;11000;50.360;7.582;2024-01-30T01:18:20;17.53;;;12.20;;
21677;SDS011;11000;50.360;7.582;2024-01-30T01:20:41;20.40;;;12.97;;
21677;SDS011;11000;50.360;7.582;2024-01-30T01:23:01;19.47;;;13.20;;
21677;SDS011;11000;50.360;7.582;2024-01-30T01:25:22;19.33;;;12.67;;
21677;SDS011;11000;50.360;7.582;2024-01-30T01:27:42;17.03;;;12.00;;
21677;SDS011;11000;50.360;7.582;2024-01-30T01:30:04;19.87;;;11.47;;
21677;SDS011;11000;50.360;7.582;2024-01-30T01:32:27;15.73;;;12.03;;
21677;SDS011;11000;50.360;7.582;2024-01-30T01:34:48;17.77;;;12.47;;
21677;SDS011;11000;50.360;7.582;2024-01-30T01:37:08;18.73;;;12.00;;
21677;SDS011;11000;50.360;7.582;2024-01-30T01:39:29;19.30;;;11.93;;
21677;SDS011;11000;50.360;7.582;2024-01-30T01:41:49;18.10;;;12.30;;
21677;SDS011;11000;50.360;7.582;2024-01-30T01:44:10;16.73;;;12.80;;
21677;SDS011;11000;50.360;7.582;2024-01-30T01:46:31;18.37;;;12.90;;
21677;SDS011;11000;50.360;7.582;2024-01-30T01:48:53;19.77;;;13.23;;
21677;SDS011;11000;50.360;7.582;2024-01-30T01:51:15;19.93;;;12.13;;
21677;SDS011;11000;50.360;7.582;2024-01-30T01:53:36;18.17;;;12.20;;
21677;SDS011;11000;50.360;7.582;2024-01-30T01:55:56;19.40;;;13.17;;
21677;SDS011;11000;50.360;7.582;2024-01-30T01:58:17;20.13;;;12.60;;
21677;SDS011;11000;50.360;7.582;2024-01-30T02:00:40;17.20;;;12.77;;
21677;SDS011;11000;50.360;7.582;2024-01-30T02:03:01;20.97;;;13.30;;
21677;SDS011;11000;50.360;7.582;2024-01-30T02:05:24;18.20;;;12.63;;
21677;SDS011;11000;50.360;7.582;2024-01-30T02:07:45;17.80;;;12.47;;
21677;SDS011;11000;50.360;7.582;2024-01-30T02:10:05;21.83;;;13.23;;
21677;SDS011;11000;50.360;7.582;2024-01-30T02:12:29;19.23;;;12.67;;
21677;SDS011;11000;50.360;7.582;2024-01-30T02:14:49;20.43;;;14.07;;
21677;SDS011;11000;50.360;7.582;2024-01-30T02:17:10;22.60;;;13.13;;
21677;SDS011;11000;50.360;7.582;2024-01-30T02:19:30;22.07;;;12.73;;
21677;SDS011;11000;50.360;7.582;2024-01-30T02:21:51;19.93;;;13.57;;
21677;SDS011;11000;50.360;7.582;2024-01-30T02:24:12;19.83;;;13.40;;
21677;SDS011;11000;50.360;7.582;2024-01-30T02:26:33;19.00;;;12.60;;
21677;SDS011;11000;50.360;7.582;2024-01-30T02:28:53;20.90;;;12.43;;
21677;SDS011;11000;50.360;7.582;2024-01-30T02:31:14;20.57;;;12.63;;
21677;SDS011;11000;50.360;7.582;2024-01-30T02:33:34;18.67;;;12.50;;
21677;SDS011;11000;50.360;7.582;2024-01-30T02:35:55;17.40;;;12.50;;
21677;SDS011;11000;50.360;7.582;2024-01-30T02:38:15;17.20;;;12.13;;
21677;SDS011;11000;50.360;7.582;2024-01-30T02:40:36;17.67;;;11.83;;
21677;SDS011;11000;50.360;7.582;2024-01-30T02:42:58;16.27;;;12.07;;
21677;SDS011;11000;50.360;7.582;2024-01-30T02:45:19;21.53;;;12.87;;
21677;SDS011;11000;50.360;7.582;2024-01-30T02:47:40;17.77;;;12.90;;
21677;SDS011;11000;50.360;7.582;2024-01-30T02:50:00;19.23;;;12.83;;
21677;SDS011;11000;50.360;7.582;2024-01-30T02:52:21;18.53;;;12.17;;
21677;SDS011;11000;50.360;7.582;2024-01-30T02:54:41;19.03;;;13.37;;
21677;SDS011;11000;50.360;7.582;2024-01-30T02:57:02;18.53;;;13.23;;
21677;SDS011;11000;50.360;7.582;2024-01-30T02:59:23;19.80;;;13.27;;
21677;SDS011;11000;50.360;7.582;2024-01-30T03:01:43;18.43;;;12.97;;
21677;SDS011;11000;50.360;7.582;2024-01-30T03:04:04;17.20;;;12.87;;
21677;SDS011;11000;50.360;7.582;2024-01-30T03:06:25;20.97;;;13.30;;
21677;SDS011;11000;50.360;7.582;2024-01-30T03:08:45;21.73;;;14.07;;
21677;SDS011;11000;50.360;7.582;2024-01-30T03:11:06;18.60;;;12.90;;
21677;SDS011;11000;50.360;7.582;2024-01-30T03:13:26;15.83;;;12.47;;
21677;SDS011;11000;50.360;7.582;2024-01-30T03:15:47;17.97;;;13.20;;
21677;SDS011;11000;50.360;7.582;2024-01-30T03:18:07;18.30;;;12.57;;
21677;SDS011;11000;50.360;7.582;2024-01-30T03:20:28;21.13;;;13.47;;
21677;SDS011;11000;50.360;7.582;2024-01-30T03:22:49;18.00;;;12.90;;
21677;SDS011;11000;50.360;7.582;2024-01-30T03:25:10;20.23;;;13.83;;
21677;SDS011;11000;50.360;7.582;2024-01-30T03:27:30;19.73;;;13.80;;
21677;SDS011;11000;50.360;7.582;2024-01-30T03:29:51;21.40;;;13.83;;
21677;SDS011;11000;50.360;7.582;2024-01-30T03:32:12;20.47;;;13.80;;
21677;SDS011;11000;50.360;7.582;2024-01-30T03:34:32;23.43;;;13.97;;
21677;SDS011;11000;50.360;7.582;2024-01-30T03:36:53;19.60;;;14.50;;
21677;SDS011;11000;50.360;7.582;2024-01-30T03:39:13;18.47;;;12.43;;
21677;SDS011;11000;50.360;7.582;2024-01-30T03:41:34;19.37;;;12.60;;
21677;SDS011;11000;50.360;7.582;2024-01-30T03:43:54;17.17;;;12.67;;
21677;SDS011;11000;50.360;7.582;2024-01-30T03:46:15;15.20;;;12.03;;
21677;SDS011;11000;50.360;7.582;2024-01-30T03:48:35;17.83;;;12.43;;
21677;SDS011;11000;50.360;7.582;2024-01-30T03:50:56;21.03;;;13.87;;
21677;SDS011;11000;50.360;7.582;2024-01-30T03:53:16;17.93;;;13.27;;
21677;SDS011;11000;50.360;7.582;2024-01-30T03:55:37;20.47;;;12.77;;
21677;SDS011;11000;50.360;7.582;2024-01-30T03:57:57;19.27;;;13.93;;
21677;SDS011;11000;50.360;7.582;2024-01-30T04:00:18;17.87;;;13.20;;
21677;SDS011;11000;50.360;7.582;2024-01-30T04:02:39;20.80;;;13.90;;
21677;SDS011;11000;50.360;7.582;2024-01-30T04:04:59;19.87;;;13.00;;
21677;SDS011;11000;50.360;7.582;2024-01-30T04:07:19;17.63;;;12.40;;
21677;SDS011;11000;50.360;7.582;2024-01-30T04:09:40;20.43;;;12.93;;
21677;SDS011;11000;50.360;7.582;2024-01-30T04:12:01;23.70;;;13.60;;
21677;SDS011;11000;50.360;7.582;2024-01-30T04:14:22;18.50;;;11.77;;
21677;SDS011;11000;50.360;7.582;2024-01-30T04:16:43;19.13;;;13.10;;
21677;SDS011;11000;50.360;7.582;2024-01-30T04:19:03;16.60;;;12.67;;
21677;SDS011;11000;50.360;7.582;2024-01-30T04:21:24;19.30;;;12.93;;
21677;SDS011;11000;50.360;7.582;2024-01-30T04:23:44;18.20;;;13.40;;
21677;SDS011;11000;50.360;7.582;2024-01-30T04:26:05;17.93;;;13.10;;
21677;SDS011;11000;50.360;7.582;2024-01-30T04:28:26;21.80;;;13.53;;
21677;SDS011;11000;50.360;7.582;2024-01-30T04:30:46;22.57;;;13.60;;
21677;SDS011;11000;50.360;7.582;2024-01-30T04:33:07;17.47;;;10.30;;
21677;SDS011;11000;50.360;7.582;2024-01-30T04:35:27;16.50;;;10.27;;
21677;SDS011;11000;50.360;7.582;2024-01-30T04:37:48;12.80;;;9.43;;
21677;SDS011;11000;50.360;7.582;2024-01-30T04:40:08;14.60;;;10.20;;
21677;SDS011;11000;50.360;7.582;2024-01-30T04:42:29;13.00;;;9.50;;
21677;SDS011;11000;50.360;7.582;2024-01-30T04:44:50;12.43;;;9.33;;
21677;SDS011;11000;50.360;7.582;2024-01-30T04:47:10;11.13;;;9.67;;
21677;SDS011;11000;50.360;7.582;2024-01-30T04:49:32;16.83;;;11.43;;
21677;SDS011;11000;50.360;7.582;2024-01-30T04:51:52;16.13;;;11.40;;
21677;SDS011;11000;50.360;7.582;2024-01-30T04:54:13;19.00;;;12.07;;
21677;SDS011;11000;50.360;7.582;2024-01-30T04:56:33;18.83;;;13.27;;
21677;SDS011;11000;50.360;7.582;2024-01-30T04:58:55;21.90;;;13.93;;
21677;SDS011;11000;50.360;7.582;2024-01-30T05:01:16;19.00;;;13.17;;
21677;SDS011;11000;50.360;7.582;2024-01-30T05:03:37;18.97;;;13.10;;
21677;SDS011;11000;50.360;7.582;2024-01-30T05:05:57;17.10;;;12.03;;
21677;SDS011;11000;50.360;7.582;2024-01-30T05:08:18;14.90;;;11.50;;
21677;SDS011;11000;50.360;7.582;2024-01-30T05:10:44;17.77;;;11.00;;
21677;SDS011;11000;50.360;7.582;2024-01-30T05:13:05;16.17;;;11.30;;
21677;SDS011;11000;50.360;7.582;2024-01-30T05:15:26;18.43;;;11.77;;
21677;SDS011;11000;50.360;7.582;2024-01-30T05:17:46;17.93;;;11.80;;
21677;SDS011;11000;50.360;7.582;2024-01-30T05:20:07;19.43;;;13.13;;
21677;SDS011;11000;50.360;7.582;2024-01-30T05:22:29;19.80;;;13.33;;
21677;SDS011;11000;50.360;7.582;2024-01-30T05:24:49;20.77;;;14.10;;
21677;SDS011;11000;50.360;7.582;2024-01-30T05:27:10;18.00;;;14.07;;
21677;SDS011;11000;50.360;7.582;2024-01-30T05:29:33;21.73;;;14.60;;
21677;SDS011;11000;50.360;7.582;2024-01-30T05:31:53;18.17;;;13.53;;
21677;SDS011;11000;50.360;7.582;2024-01-30T05:34:14;23.63;;;15.00;;
21677;SDS011;11000;50.360;7.582;2024-01-30T05:36:34;19.27;;;14.40;;
21677;SDS011;11000;50.360;7.582;2024-01-30T05:38:56;16.63;;;11.50;;
21677;SDS011;11000;50.360;7.582;2024-01-30T05:41:17;16.93;;;11.23;;
21677;SDS011;11000;50.360;7.582;2024-01-30T05:43:37;16.27;;;10.77;;
21677;SDS011;11000;50.360;7.582;2024-01-30T05:45:58;16.13;;;10.20;;
21677;SDS011;11000;50.360;7.582;2024-01-30T05:48:18;14.27;;;9.77;;
21677;SDS011;11000;50.360;7.582;2024-01-30T05:50:38;17.70;;;9.87;;
21677;SDS011;11000;50.360;7.582;2024-01-30T05:52:59;12.90;;;9.20;;
21677;SDS011;11000;50.360;7.582;2024-01-30T05:55:19;12.53;;;9.67;;
21677;SDS011;11000;50.360;7.582;2024-01-30T05:57:40;15.53;;;10.10;;
21677;SDS011;11000;50.360;7.582;2024-01-30T06:00:00;13.70;;;9.90;;
21677;SDS011;11000;50.360;7.582;2024-01-30T06:02:21;13.07;;;9.70;;
21677;SDS011;11000;50.360;7.582;2024-01-30T06:04:41;15.20;;;10.60;;
21677;SDS011;11000;50.360;7.582;2024-01-30T06:07:02;18.80;;;11.37;;
21677;SDS011;11000;50.360;7.582;2024-01-30T06:09:23;16.77;;;11.20;;
21677;SDS011;11000;50.360;7.582;2024-01-30T06:11:43;16.70;;;11.93;;
21677;SDS011;11000;50.360;7.582;2024-01-30T06:14:03;17.33;;;12.10;;
21677;SDS011;11000;50.360;7.582;2024-01-30T06:16:24;18.63;;;12.73;;
21677;SDS011;11000;50.360;7.582;2024-01-30T06:18:44;17.33;;;12.43;;
21677;SDS011;11000;50.360;7.582;2024-01-30T06:21:05;19.27;;;13.40;;
21677;SDS011;11000;50.360;7.582;2024-01-30T06:23:26;18.77;;;12.97;;
21677;SDS011;11000;50.360;7.582;2024-01-30T06:25:46;17.13;;;12.50;;
21677;SDS011;11000;50.360;7.582;2024-01-30T06:28:07;20.13;;;13.17;;
21677;SDS011;11000;50.360;7.582;2024-01-30T06:30:27;21.20;;;13.10;;
21677;SDS011;11000;50.360;7.582;2024-01-30T06:32:48;20.33;;;13.77;;
21677;SDS011;11000;50.360;7.582;2024-01-30T06:35:08;18.20;;;13.77;;
21677;SDS011;11000;50.360;7.582;2024-01-30T06:37:30;20.90;;;13.73;;
21677;SDS011;11000;50.360;7.582;2024-01-30T06:39:50;19.67;;;13.77;;
21677;SDS011;11000;50.360;7.582;2024-01-30T06:42:12;19.80;;;14.17;;
21677;SDS011;11000;50.360;7.582;2024-01-30T06:44:33;19.90;;;13.57;;
21677;SDS011;11000;50.360;7.582;2024-01-30T06:46:53;18.33;;;12.80;;
21677;SDS011;11000;50.360;7.582;2024-01-30T06:49:14;17.67;;;12.90;;
21677;SDS011;11000;50.360;7.582;2024-01-30T06:51:34;15.07;;;10.30;;
21677;SDS011;11000;50.360;7.582;2024-01-30T06:53:55;12.57;;;8.80;;
21677;SDS011;11000;50.360;7.582;2024-01-30T06:56:15;12.20;;;8.73;;
21677;SDS011;11000;50.360;7.582;2024-01-30T06:58:40;11.33;;;7.53;;
21677;SDS011;11000;50.360;7.582;2024-01-30T07:01:01;8.97;;;6.90;;
21677;SDS011;11000;50.360;7.582;2024-01-30T07:03:22;9.90;;;7.53;;
21677;SDS011;11000;50.360;7.582;2024-01-30T07:05:42;9.13;;;7.20;;
21677;SDS011;11000;50.360;7.582;2024-01-30T07:08:03;8.53;;;7.20;;
21677;SDS011;11000;50.360;7.582;2024-01-30T07:10:23;12.27;;;8.93;;
21677;SDS011;11000;50.360;7.582;2024-01-30T07:12:44;19.03;;;13.40;;
21677;SDS011;11000;50.360;7.582;2024-01-30T07:15:05;21.90;;;15.13;;
21677;SDS011;11000;50.360;7.582;2024-01-30T07:17:28;17.10;;;11.83;;
21677;SDS011;11000;50.360;7.582;2024-01-30T07:19:48;12.73;;;8.97;;
21677;SDS011;11000;50.360;7.582;2024-01-30T07:22:09;11.03;;;8.27;;
21677;SDS011;11000;50.360;7.582;2024-01-30T07:24:29;12.93;;;8.00;;
21677;SDS011;11000;50.360;7.582;2024-01-30T07:26:50;17.03;;;11.13;;
21677;SDS011;11000;50.360;7.582;2024-01-30T07:29:10;22.57;;;13.13;;
21677;SDS011;11000;50.360;7.582;2024-01-30T07:31:31;22.60;;;13.60;;
21677;SDS011;11000;50.360;7.582;2024-01-30T07:33:51;20.70;;;13.47;;
21677;SDS011;11000;50.360;7.582;2024-01-30T07:36:13;22.60;;;14.50;;
21677;SDS011;11000;50.360;7.582;2024-01-30T07:38:33;23.20;;;15.67;;
21677;SDS011;11000;50.360;7.582;2024-01-30T07:40:54;24.57;;;15.83;;
21677;SDS011;11000;50.360;7.582;2024-01-30T07:43:15;23.27;;;15.50;;
21677;SDS011;11000;50.360;7.582;2024-01-30T07:45:35;18.90;;;12.30;;
21677;SDS011;11000;50.360;7.582;2024-01-30T07:47:57;18.43;;;12.57;;
21677;SDS011;11000;50.360;7.582;2024-01-30T07:50:18;19.90;;;12.73;;
21677;SDS011;11000;50.360;7.582;2024-01-30T07:52:39;20.37;;;14.37;;
21677;SDS011;11000;50.360;7.582;2024-01-30T07:54:59;24.33;;;15.53;;
21677;SDS011;11000;50.360;7.582;2024-01-30T07:57:20;24.60;;;16.07;;
21677;SDS011;11000;50.360;7.582;2024-01-30T07:59:44;24.87;;;16.57;;
21677;SDS011;11000;50.360;7.582;2024-01-30T08:02:05;23.27;;;16.40;;
21677;SDS011;11000;50.360;7.582;2024-01-30T08:04:26;26.57;;;16.63;;
21677;SDS011;11000;50.360;7.582;2024-01-30T08:06:46;24.23;;;16.27;;
21677;SDS011;11000;50.360;7.582;2024-01-30T08:09:07;26.43;;;17.10;;
21677;SDS011;11000;50.360;7.582;2024-01-30T08:11:28;23.53;;;16.33;;
21677;SDS011;11000;50.360;7.582;2024-01-30T08:13:49;28.97;;;16.10;;
21677;SDS011;11000;50.360;7.582;2024-01-30T08:16:10;26.80;;;16.53;;
21677;SDS011;11000;50.360;7.582;2024-01-30T08:18:30;25.00;;;16.60;;
21677;SDS011;11000;50.360;7.582;2024-01-30T08:20:51;24.07;;;16.77;;
21677;SDS011;11000;50.360;7.582;2024-01-30T08:23:12;25.23;;;15.67;;
21677;SDS011;11000;50.360;7.582;2024-01-30T08:25:32;22.77;;;16.43;;
21677;SDS011;11000;50.360;7.582;2024-01-30T08:27:53;22.40;;;15.57;;
21677;SDS011;11000;50.360;7.582;2024-01-30T08:30:13;24.97;;;15.20;;
21677;SDS011;11000;50.360;7.582;2024-01-30T08:32:34;26.90;;;16.03;;
21677;SDS011;11000;50.360;7.582;2024-01-30T08:34:55;21.73;;;15.00;;
21677;SDS011;11000;50.360;7.582;2024-01-30T08:37:15;22.10;;;14.97;;
21677;SDS011;11000;50.360;7.582;2024-01-30T08:39:37;22.87;;;14.80;;
21677;SDS011;11000;50.360;7.582;2024-01-30T08:41:57;22.37;;;15.23;;
21677;SDS011;11000;50.360;7.582;2024-01-30T08:44:18;20.60;;;13.43;;
21677;SDS011;11000;50.360;7.582;2024-01-30T08:46:38;18.47;;;13.47;;
21677;SDS011;11000;50.360;7.582;2024-01-30T08:48:59;21.20;;;14.00;;
21677;SDS011;11000;50.360;7.582;2024-01-30T08:51:19;17.33;;;12.63;;
21677;SDS011;11000;50.360;7.582;2024-01-30T08:53:40;16.83;;;12.33;;
21677;SDS011;11000;50.360;7.582;2024-01-30T08:56:01;22.37;;;14.83;;
21677;SDS011;11000;50.360;7.582;2024-01-30T08:58:22;22.80;;;14.53;;
21677;SDS011;11000;50.360;7.582;2024-01-30T09:00:43;22.73;;;14.77;;
21677;SDS011;11000;50.360;7.582;2024-01-30T09:03:03;20.73;;;14.53;;
21677;SDS011;11000;50.360;7.582;2024-01-30T09:05:24;22.43;;;15.73;;
21677;SDS011;11000;50.360;7.582;2024-01-30T09:07:44;21.47;;;15.03;;
21677;SDS011;11000;50.360;7.582;2024-01-30T09:10:06;23.47;;;15.43;;
21677;SDS011;11000;50.360;7.582;2024-01-30T09:12:26;24.77;;;15.13;;
21677;SDS011;11000;50.360;7.582;2024-01-30T09:14:47;24.87;;;15.97;;
21677;SDS011;11000;50.360;7.582;2024-01-30T09:17:07;22.87;;;14.87;;
21677;SDS011;11000;50.360;7.582;2024-01-30T09:19:29;19.20;;;15.20;;
21677;SDS011;11000;50.360;7.582;2024-01-30T09:21:50;24.97;;;15.77;;
21677;SDS011;11000;50.360;7.582;2024-01-30T09:24:10;23.07;;;14.93;;
21677;SDS011;11000;50.360;7.582;2024-01-30T09:26:31;24.13;;;14.70;;
21677;SDS011;11000;50.360;7.582;2024-01-30T09:28:51;25.03;;;16.13;;
21677;SDS011;11000;50.360;7.582;2024-01-30T09:31:12;19.93;;;15.53;;
21677;SDS011;11000;50.360;7.582;2024-01-30T09:33:32;23.30;;;15.33;;
21677;SDS011;11000;50.360;7.582;2024-01-30T09:35:53;23.00;;;15.43;;
21677;SDS011;11000;50.360;7.582;2024-01-30T09:38:13;20.70;;;14.90;;
21677;SDS011;11000;50.360;7.582;2024-01-30T09:40:34;23.53;;;15.83;;
21677;SDS011;11000;50.360;7.582;2024-01-30T09:42:54;25.50;;;15.63;;
21677;SDS011;11000;50.360;7.582;2024-01-30T09:45:15;22.20;;;15.70;;
21677;SDS011;11000;50.360;7.582;2024-01-30T09:47:42;20.60;;;14.37;;
21677;SDS011;11000;50.360;7.582;2024-01-30T09:50:03;20.80;;;14.90;;
21677;SDS011;11000;50.360;7.582;2024-01-30T09:52:26;21.03;;;14.43;;
21677;SDS011;11000;50.360;7.582;2024-01-30T09:54:46;21.40;;;13.87;;
21677;SDS011;11000;50.360;7.582;2024-01-30T09:57:09;20.53;;;13.40;;
21677;SDS011;11000;50.360;7.582;2024-01-30T09:59:31;19.10;;;12.53;;
21677;SDS011;11000;50.360;7.582;2024-01-30T10:01:52;18.47;;;13.30;;
21677;SDS011;11000;50.360;7.582;2024-01-30T10:04:13;17.77;;;12.50;;
21677;SDS011;11000;50.360;7.582;2024-01-30T10:06:33;20.37;;;12.53;;
21677;SDS011;11000;50.360;7.582;2024-01-30T10:08:54;21.10;;;13.43;;
21677;SDS011;11000;50.360;7.582;2024-01-30T10:11:14;21.10;;;13.20;;
21677;SDS011;11000;50.360;7.582;2024-01-30T10:13:35;21.10;;;13.33;;
21677;SDS011;11000;50.360;7.582;2024-01-30T10:15:55;21.77;;;13.97;;
21677;SDS011;11000;50.360;7.582;2024-01-30T10:18:18;18.60;;;12.43;;
21677;SDS011;11000;50.360;7.582;2024-01-30T10:20:38;17.90;;;13.80;;
21677;SDS011;11000;50.360;7.582;2024-01-30T10:22:59;26.47;;;14.73;;
21677;SDS011;11000;50.360;7.582;2024-01-30T10:25:21;23.10;;;15.30;;
21677;SDS011;11000;50.360;7.582;2024-01-30T10:27:41;19.37;;;13.97;;
21677;SDS011;11000;50.360;7.582;2024-01-30T10:30:02;20.33;;;13.80;;
21677;SDS011;11000;50.360;7.582;2024-01-30T10:32:24;18.40;;;14.23;;
21677;SDS011;11000;50.360;7.582;2024-01-30T10:34:45;18.80;;;13.20;;
21677;SDS011;11000;50.360;7.582;2024-01-30T10:37:09;18.73;;;14.00;;
21677;SDS011;11000;50.360;7.582;2024-01-30T10:39:37;18.97;;;13.57;;
21677;SDS011;11000;50.360;7.582;2024-01-30T10:42:00;18.07;;;13.37;;
21677;SDS011;11000;50.360;7.582;2024-01-30T10:44:25;18.73;;;13.53;;
21677;SDS011;11000;50.360;7.582;2024-01-30T10:46:51;18.47;;;13.67;;
21677;SDS011;11000;50.360;7.582;2024-01-30T10:49:20;17.17;;;12.90;;
21677;SDS011;11000;50.360;7.582;2024-01-30T10:51:41;19.23;;;12.43;;
21677;SDS011;11000;50.360;7.582;2024-01-30T10:54:02;18.30;;;12.23;;
21677;SDS011;11000;50.360;7.582;2024-01-30T10:56:25;18.60;;;12.93;;
21677;SDS011;11000;50.360;7.582;2024-01-30T10:58:45;18.40;;;12.90;;
21677;SDS011;11000;50.360;7.582;2024-01-30T11:01:07;17.43;;;13.13;;
21677;SDS011;11000;50.360;7.582;2024-01-30T11:03:28;18.83;;;12.77;;
21677;SDS011;11000;50.360;7.582;2024-01-30T11:05:50;19.30;;;13.20;;
21677;SDS011;11000;50.360;7.582;2024-01-30T11:08:22;18.83;;;13.43;;
21677;SDS011;11000;50.360;7.582;2024-01-30T11:10:47;17.93;;;13.40;;
21677;SDS011;11000;50.360;7.582;2024-01-30T11:13:13;17.53;;;12.70;;
21677;SDS011;11000;50.360;7.582;2024-01-30T11:15:37;15.67;;;12.03;;
21677;SDS011;11000;50.360;7.582;2024-01-30T11:17:58;17.53;;;12.17;;
21677;SDS011;11000;50.360;7.582;2024-01-30T11:20:21;16.40;;;11.97;;
21677;SDS011;11000;50.360;7.582;2024-01-30T11:22:46;18.93;;;12.50;;
21677;SDS011;11000;50.360;7.582;2024-01-30T11:25:10;16.00;;;12.00;;
21677;SDS011;11000;50.360;7.582;2024-01-30T11:27:31;16.87;;;12.27;;
21677;SDS011;11000;50.360;7.582;2024-01-30T11:29:52;17.03;;;12.57;;
21677;SDS011;11000;50.360;7.582;2024-01-30T11:32:16;17.97;;;12.03;;
21677;SDS011;11000;50.360;7.582;2024-01-30T11:34:45;17.97;;;12.10;;
21677;SDS011;11000;50.360;7.582;2024-01-30T11:37:08;21.77;;;12.40;;
21677;SDS011;11000;50.360;7.582;2024-01-30T11:39:31;18.30;;;12.97;;
21677;SDS011;11000;50.360;7.582;2024-01-30T11:41:52;21.27;;;13.03;;
21677;SDS011;11000;50.360;7.582;2024-01-30T11:44:15;22.53;;;14.80;;
21677;SDS011;11000;50.360;7.582;2024-01-30T11:46:35;22.13;;;12.77;;
21677;SDS011;11000;50.360;7.582;2024-01-30T11:48:56;17.20;;;13.20;;
21677;SDS011;11000;50.360;7.582;2024-01-30T11:51:17;17.53;;;13.30;;
21677;SDS011;11000;50.360;7.582;2024-01-30T11:53:39;21.37;;;13.37;;
21677;SDS011;11000;50.360;7.582;2024-01-30T11:56:01;17.57;;;13.17;;
21677;SDS011;11000;50.360;7.582;2024-01-30T11:58:26;21.40;;;13.77;;
21677;SDS011;11000;50.360;7.582;2024-01-30T12:00:54;18.27;;;12.27;;
21677;SDS011;11000;50.360;7.582;2024-01-30T12:03:15;15.20;;;11.50;;
21677;SDS011;11000;50.360;7.582;2024-01-30T12:05:36;20.70;;;12.67;;
21677;SDS011;11000;50.360;7.582;2024-01-30T12:08:02;18.97;;;11.93;;
21677;SDS011;11000;50.360;7.582;2024-01-30T12:10:23;17.70;;;12.13;;
21677;SDS011;11000;50.360;7.582;2024-01-30T12:12:49;15.70;;;11.67;;
21677;SDS011;11000;50.360;7.582;2024-01-30T12:15:10;17.80;;;11.07;;
21677;SDS011;11000;50.360;7.582;2024-01-30T12:17:31;16.37;;;11.43;;
21677;SDS011;11000;50.360;7.582;2024-01-30T12:20:02;21.27;;;11.47;;
21677;SDS011;11000;50.360;7.582;2024-01-30T12:22:26;20.87;;;12.00;;
21677;SDS011;11000;50.360;7.582;2024-01-30T12:24:47;19.30;;;12.60;;
21677;SDS011;11000;50.360;7.582;2024-01-30T12:27:07;17.83;;;12.27;;
21677;SDS011;11000;50.360;7.582;2024-01-30T12:29:31;17.87;;;12.13;;
21677;SDS011;11000;50.360;7.582;2024-01-30T12:31:53;20.30;;;12.20;;
21677;SDS011;11000;50.360;7.582;2024-01-30T12:34:14;19.87;;;12.03;;
21677;SDS011;11000;50.360;7.582;2024-01-30T12:36:40;16.23;;;11.20;;
21677;SDS011;11000;50.360;7.582;2024-01-30T12:39:01;19.10;;;12.13;;
21677;SDS011;11000;50.360;7.582;2024-01-30T12:41:21;16.67;;;11.73;;
21677;SDS011;11000;50.360;7.582;2024-01-30T12:43:42;20.30;;;11.80;;
21677;SDS011;11000;50.360;7.582;2024-01-30T12:46:03;16.27;;;11.83;;
21677;SDS011;11000;50.360;7.582;2024-01-30T12:48:23;18.83;;;10.57;;
21677;SDS011;11000;50.360;7.582;2024-01-30T12:50:44;14.53;;;10.93;;
21677;SDS011;11000;50.360;7.582;2024-01-30T12:53:04;16.37;;;11.27;;
21677;SDS011;11000;50.360;7.582;2024-01-30T12:55:26;8.67;;;6.50;;
21677;SDS011;11000;50.360;7.582;2024-01-30T12:57:48;10.23;;;7.60;;
21677;SDS011;11000;50.360;7.582;2024-01-30T13:00:08;8.70;;;5.67;;
21677;SDS011;11000;50.360;7.582;2024-01-30T13:02:29;7.43;;;5.90;;
21677;SDS011;11000;50.360;7.582;2024-01-30T13:04:54;8.40;;;5.53;;
21677;SDS011;11000;50.360;7.582;2024-01-30T13:07:15;8.30;;;5.77;;
21677;SDS011;11000;50.360;7.582;2024-01-30T13:09:35;6.27;;;5.50;;
21677;SDS011;11000;50.360;7.582;2024-01-30T13:11:56;7.00;;;5.27;;
21677;SDS011;11000;50.360;7.582;2024-01-30T13:14:17;9.47;;;5.87;;
21677;SDS011;11000;50.360;7.582;2024-01-30T13:16:38;7.90;;;5.80;;
21677;SDS011;11000;50.360;7.582;2024-01-30T13:18:58;8.77;;;5.50;;
21677;SDS011;11000;50.360;7.582;2024-01-30T13:21:21;8.53;;;5.83;;
21677;SDS011;11000;50.360;7.582;2024-01-30T13:23:41;11.27;;;5.53;;
21677;SDS011;11000;50.360;7.582;2024-01-30T13:26:03;10.33;;;5.87;;
21677;SDS011;11000;50.360;7.582;2024-01-30T13:28:23;7.97;;;5.27;;
21677;SDS011;11000;50.360;7.582;2024-01-30T13:30:45;8.63;;;5.67;;
21677;SDS011;11000;50.360;7.582;2024-01-30T13:33:06;8.67;;;6.03;;
21677;SDS011;11000;50.360;7.582;2024-01-30T13:35:26;8.93;;;5.73;;
21677;SDS011;11000;50.360;7.582;2024-01-30T13:37:47;9.03;;;5.80;;
21677;SDS011;11000;50.360;7.582;2024-01-30T13:40:08;8.87;;;5.53;;
21677;SDS011;11000;50.360;7.582;2024-01-30T13:42:29;7.03;;;5.80;;
21677;SDS011;11000;50.360;7.582;2024-01-30T13:44:49;7.93;;;5.27;;
21677;SDS011;11000;50.360;7.582;2024-01-30T13:47:10;7.50;;;5.43;;